createdAt,value
2022-08-05T00:02:27.125Z,23.86
2022-08-05T00:04:56.148Z,23.86
2022-08-05T00:07:58.894Z,23.92
2022-08-05T00:10:10.001Z,23.85
2022-08-05T00:12:55.817Z,23.80
2022-08-05T00:15:56.230Z,23.88
2022-08-05T00:18:21.579Z,23.98
2022-08-05T00:20:50.282Z,24.01
2022-08-05T00:23:17.366Z,24.18
2022-08-05T00:26:04.092Z,24.14
2022-08-05T00:28:30.790Z,24.18
2022-08-05T00:31:03.007Z,24.17
2022-08-05T00:34:54.215Z,24.03
2022-08-05T00:37:11.070Z,24.05
2022-08-05T00:39:04.782Z,23.90
2022-08-05T00:41:46.833Z,23.95
2022-08-05T00:44:19.311Z,24.02
2022-08-05T00:46:47.486Z,23.89
2022-08-05T00:49:20.990Z,23.91
2022-08-05T00:51:51.219Z,23.97
2022-08-05T00:54:18.695Z,23.84
2022-08-05T00:56:51.315Z,23.92
2022-08-05T00:59:18.524Z,24.17
2022-08-05T01:01:48.392Z,24.17
2022-08-05T01:04:16.121Z,24.09
2022-08-05T01:06:51.697Z,24.07
2022-08-05T01:09:20.029Z,23.86
2022-08-05T01:11:50.110Z,23.74
2022-08-05T01:14:28.279Z,23.61
2022-08-05T01:17:16.700Z,23.75
2022-08-05T01:20:01.594Z,23.70
2022-08-05T01:22:47.025Z,23.48
2022-08-05T01:25:53.368Z,23.36
2022-08-05T01:28:39.426Z,23.21
2022-08-05T01:31:12.330Z,23.09
2022-08-05T01:33:49.364Z,23.06
2022-08-05T01:36:28.118Z,23.10
2022-08-05T01:38:56.848Z,23.05
2022-08-05T01:41:31.551Z,23.02
2022-08-05T01:44:01.578Z,23.05
2022-08-05T01:46:42.208Z,22.99
2022-08-05T01:49:23.054Z,23.00
2022-08-05T01:51:56.283Z,22.94
2022-08-05T01:54:45.680Z,22.98
2022-08-05T01:58:09.880Z,22.97
2022-08-05T02:00:11.670Z,22.92
2022-08-05T02:02:51.084Z,22.86
2022-08-05T02:05:23.493Z,22.97
2022-08-05T02:07:57.893Z,22.99
2022-08-05T02:10:32.738Z,22.91
2022-08-05T02:13:15.776Z,22.84
2022-08-05T02:15:59.994Z,22.84
2022-08-05T02:18:42.627Z,22.72
2022-08-05T02:21:25.021Z,22.78
2022-08-05T02:23:56.373Z,22.81
2022-08-05T02:26:33.348Z,22.74
2022-08-05T02:29:01.215Z,22.73
2022-08-05T02:31:35.007Z,22.64
2022-08-05T02:34:06.671Z,22.53
2022-08-05T02:36:39.192Z,22.54
2022-08-05T02:39:09.815Z,22.43
2022-08-05T02:41:58.099Z,22.28
2022-08-05T02:44:28.287Z,22.19
2022-08-05T02:47:00.741Z,22.03
2022-08-05T02:49:37.034Z,21.97
2022-08-05T02:52:09.221Z,21.93
2022-08-05T02:54:37.873Z,22.00
2022-08-05T02:58:10.465Z,22.11
2022-08-05T02:59:59.674Z,22.02
2022-08-05T03:02:37.869Z,21.89
2022-08-05T03:05:06.918Z,21.90
2022-08-05T03:08:01.631Z,21.99
2022-08-05T03:10:22.019Z,21.98
2022-08-05T03:12:52.065Z,21.88
2022-08-05T03:15:20.535Z,22.02
2022-08-05T03:17:46.992Z,22.01
2022-08-05T03:20:13.819Z,22.14
2022-08-05T03:22:43.945Z,22.25
2022-08-05T03:25:32.377Z,22.19
2022-08-05T03:28:01.502Z,22.23
2022-08-05T03:30:33.979Z,22.50
2022-08-05T03:33:06.155Z,22.63
2022-08-05T03:35:40.960Z,22.58
2022-08-05T03:38:11.189Z,22.56
2022-08-05T03:40:45.188Z,22.40
2022-08-05T03:43:59.321Z,22.30
2022-08-05T03:46:01.657Z,22.34
2022-08-05T03:48:29.754Z,22.20
2022-08-05T03:52:39.132Z,22.06
2022-08-05T03:55:00.535Z,22.19
2022-08-05T03:57:28.932Z,22.24
2022-08-05T04:00:00.238Z,22.09
2022-08-05T04:02:38.358Z,21.93
2022-08-05T04:05:09.739Z,21.97
2022-08-05T04:07:58.378Z,21.79
2022-08-05T04:10:30.791Z,21.74
2022-08-05T04:13:00.508Z,21.92
2022-08-05T04:15:33.177Z,22.23
2022-08-05T04:18:07.816Z,22.28
2022-08-05T04:20:37.033Z,22.28
2022-08-05T04:23:04.015Z,22.33
2022-08-05T04:25:57.829Z,22.25
2022-08-05T04:28:17.664Z,22.18
2022-08-05T04:30:44.844Z,22.34
2022-08-05T04:33:12.157Z,22.43
2022-08-05T04:36:16.397Z,22.33
2022-08-05T04:38:39.960Z,22.25
2022-08-05T04:41:09.543Z,22.39
2022-08-05T04:43:37.677Z,22.39
2022-08-05T04:46:07.070Z,22.19
2022-08-05T04:48:33.526Z,22.08
2022-08-05T04:51:02.683Z,22.06
2022-08-05T04:53:33.503Z,22.40
2022-08-05T04:56:15.129Z,22.24
2022-08-05T04:58:48.282Z,22.39
2022-08-05T05:01:14.831Z,22.68
2022-08-05T05:04:00.643Z,22.82
2022-08-05T05:06:40.752Z,22.97
2022-08-05T05:09:13.299Z,22.82
2022-08-05T05:11:54.405Z,22.76
2022-08-05T05:14:31.247Z,22.67
2022-08-05T05:16:59.837Z,22.85
2022-08-05T05:19:36.135Z,23.00
2022-08-05T05:22:23.426Z,23.14
2022-08-05T05:24:58.034Z,23.29
2022-08-05T05:27:44.750Z,23.24
2022-08-05T05:30:30.674Z,23.34
2022-08-05T05:33:03.579Z,23.47
2022-08-05T05:35:42.529Z,23.65
2022-08-05T05:38:13.487Z,23.83
2022-08-05T05:40:48.343Z,24.07
2022-08-05T05:43:22.209Z,24.10
2022-08-05T05:46:10.711Z,24.25
2022-08-05T05:48:41.816Z,24.24
2022-08-05T05:51:14.895Z,24.40
2022-08-05T05:53:54.047Z,24.54
2022-08-05T05:56:26.066Z,24.67
2022-08-05T05:59:03.331Z,24.93
2022-08-05T06:01:37.519Z,24.94
2022-08-05T06:04:07.533Z,25.21
2022-08-05T06:06:34.771Z,25.28
2022-08-05T06:09:03.928Z,25.40
2022-08-05T06:11:31.201Z,25.53
2022-08-05T06:13:57.984Z,25.68
2022-08-05T06:16:32.587Z,25.89
2022-08-05T06:19:01.812Z,26.14
2022-08-05T06:21:37.254Z,26.23
2022-08-05T06:24:11.832Z,26.29
2022-08-05T06:26:51.771Z,26.38
2022-08-05T06:29:25.207Z,26.34
2022-08-05T06:32:25.128Z,26.43
2022-08-05T06:34:56.727Z,26.49
2022-08-05T06:37:57.812Z,26.61
2022-08-05T06:40:18.304Z,26.64
2022-08-05T06:42:51.660Z,26.72
2022-08-05T06:45:21.181Z,26.86
2022-08-05T06:48:36.592Z,26.88
2022-08-05T06:50:52.189Z,26.92
2022-08-05T06:53:22.568Z,26.96
2022-08-05T06:55:55.646Z,27.01
2022-08-05T06:58:29.893Z,27.06
2022-08-05T07:01:03.932Z,27.01
2022-08-05T07:03:32.860Z,26.91
2022-08-05T07:06:01.950Z,26.83
2022-08-05T07:08:32.847Z,26.64
2022-08-05T07:10:59.642Z,26.66
2022-08-05T07:13:59.460Z,26.86
2022-08-05T07:17:59.331Z,26.82
2022-08-05T07:22:28.389Z,26.88
2022-08-05T07:25:23.870Z,26.98
2022-08-05T07:27:57.336Z,27.17
2022-08-05T07:30:31.914Z,27.30
2022-08-05T07:32:59.945Z,27.43
2022-08-05T07:36:05.228Z,27.53
2022-08-05T07:38:32.993Z,27.54
2022-08-05T07:41:04.436Z,27.61
2022-08-05T07:43:43.891Z,27.53
2022-08-05T07:46:20.745Z,27.43
2022-08-05T07:49:03.420Z,27.36
2022-08-05T07:51:40.984Z,27.26
2022-08-05T07:54:23.145Z,27.31
2022-08-05T07:57:02.477Z,27.44
2022-08-05T07:59:41.081Z,27.48
2022-08-05T08:02:15.729Z,27.55
2022-08-05T08:04:46.564Z,27.65
2022-08-05T08:07:13.887Z,27.37
2022-08-05T08:09:41.437Z,27.67
2022-08-05T08:12:20.956Z,27.71
2022-08-05T08:14:54.891Z,27.77
2022-08-05T08:17:21.697Z,27.94
2022-08-05T08:20:22.442Z,28.23
2022-08-05T08:22:35.770Z,28.24
2022-08-05T08:25:03.082Z,28.27
2022-08-05T08:27:35.891Z,28.56
2022-08-05T08:30:29.704Z,28.62
2022-08-05T08:33:04.515Z,29.33
2022-08-05T08:35:40.908Z,30.07
2022-08-05T08:38:08.084Z,30.84
2022-08-05T08:40:35.885Z,31.77
2022-08-05T08:44:57.860Z,32.18
2022-08-05T08:45:54.094Z,32.18
2022-08-05T08:49:03.394Z,32.74
2022-08-05T08:52:01.711Z,31.86
2022-08-05T08:53:56.340Z,31.59
2022-08-05T08:56:23.676Z,32.20
2022-08-05T08:58:53.967Z,33.15
2022-08-05T09:01:20.607Z,34.16
2022-08-05T09:03:57.307Z,34.88
2022-08-05T09:06:29.706Z,34.93
2022-08-05T09:08:58.624Z,35.36
2022-08-05T09:11:51.229Z,34.97
2022-08-05T09:14:57.619Z,34.17
2022-08-05T09:17:05.023Z,34.89
2022-08-05T09:19:36.638Z,34.38
2022-08-05T09:22:30.727Z,34.89
2022-08-05T09:25:13.922Z,34.68
2022-08-05T09:28:04.271Z,34.71
2022-08-05T09:30:34.384Z,34.88
2022-08-05T09:33:04.544Z,35.31
2022-08-05T09:35:31.508Z,34.99
2022-08-05T09:38:17.267Z,34.40
2022-08-05T09:40:53.619Z,35.19
2022-08-05T09:43:40.560Z,36.10
2022-08-05T09:46:28.475Z,36.12
2022-08-05T09:49:06.942Z,36.55
2022-08-05T09:51:36.509Z,37.02
2022-08-05T09:54:07.573Z,36.93
2022-08-05T09:56:39.040Z,37.63
2022-08-05T09:59:11.232Z,37.92
2022-08-05T10:01:46.536Z,38.07
2022-08-05T10:04:14.123Z,38.32
2022-08-05T10:06:58.612Z,37.67
2022-08-05T10:09:28.141Z,37.41
2022-08-05T10:12:28.422Z,37.31
2022-08-05T10:14:54.359Z,37.38
2022-08-05T10:17:37.311Z,37.87
2022-08-05T10:20:10.826Z,37.37
2022-08-05T10:22:48.755Z,38.03
2022-08-05T10:25:19.127Z,38.37
2022-08-05T10:28:13.911Z,37.03
2022-08-05T10:31:20.214Z,37.07
2022-08-05T10:33:25.652Z,36.15
2022-08-05T10:35:59.728Z,37.19
2022-08-05T10:38:29.439Z,37.98
2022-08-05T10:41:13.641Z,38.20
2022-08-05T10:44:05.573Z,39.19
2022-08-05T10:46:54.325Z,40.02
2022-08-05T10:49:26.951Z,39.66
2022-08-05T10:52:03.209Z,40.03
2022-08-05T10:55:02.982Z,38.57
2022-08-05T10:57:32.398Z,39.17
2022-08-05T11:00:30.417Z,39.14
2022-08-05T11:03:23.585Z,39.56
2022-08-05T11:06:15.178Z,39.70
2022-08-05T11:09:16.336Z,40.32
2022-08-05T11:11:53.361Z,40.68
2022-08-05T11:17:59.746Z,40.85
2022-08-05T11:20:41.548Z,40.29
2022-08-05T11:23:25.508Z,40.48
2022-08-05T11:26:33.385Z,39.47
2022-08-05T11:29:13.275Z,39.95
2022-08-05T11:31:54.157Z,40.45
2022-08-05T11:34:37.490Z,41.23
2022-08-05T11:37:09.255Z,41.92
2022-08-05T11:40:00.808Z,41.59
2022-08-05T11:42:40.367Z,40.49
2022-08-05T11:45:14.194Z,40.59
2022-08-05T11:47:52.599Z,40.40
2022-08-05T11:50:21.208Z,40.86
2022-08-05T11:52:48.857Z,41.55
2022-08-05T11:55:16.843Z,42.10
2022-08-05T11:58:09.266Z,40.97
2022-08-05T12:00:38.249Z,39.99
2022-08-05T12:03:28.674Z,37.48
2022-08-05T12:06:06.487Z,36.97
2022-08-05T12:08:57.279Z,37.13
2022-08-05T12:11:40.375Z,37.75
2022-08-05T12:14:08.533Z,38.52
2022-08-05T12:16:39.595Z,39.33
2022-08-05T12:19:08.370Z,40.46
2022-08-05T12:21:42.080Z,39.63
2022-08-05T12:24:11.659Z,38.99
2022-08-05T12:26:38.666Z,38.12
2022-08-05T12:29:09.856Z,38.64
2022-08-05T12:31:53.964Z,38.43
2022-08-05T12:34:26.760Z,37.38
2022-08-05T12:36:55.226Z,36.54
2022-08-05T12:39:34.587Z,36.09
2022-08-05T12:42:14.854Z,35.57
2022-08-05T12:44:43.134Z,34.95
2022-08-05T12:47:12.584Z,34.77
2022-08-05T12:50:04.374Z,34.87
2022-08-05T12:52:42.182Z,35.46
2022-08-05T12:55:28.321Z,37.19
2022-08-05T12:58:49.251Z,38.33
2022-08-05T13:02:05.930Z,39.58
2022-08-05T13:03:42.233Z,40.33
2022-08-05T13:06:17.144Z,40.34
2022-08-05T13:08:49.125Z,39.93
2022-08-05T13:11:25.565Z,40.56
2022-08-05T13:14:19.367Z,40.42
2022-08-05T13:16:48.940Z,40.67
2022-08-05T13:19:16.585Z,39.61
2022-08-05T13:21:48.199Z,40.16
2022-08-05T13:24:36.414Z,40.24
2022-08-05T13:27:11.140Z,37.28
2022-08-05T13:29:59.369Z,36.26
2022-08-05T13:32:34.051Z,36.70
2022-08-05T13:35:03.741Z,37.69
2022-08-05T13:37:34.881Z,38.62
2022-08-05T13:40:13.859Z,38.47
2022-08-05T13:42:43.984Z,39.16
2022-08-05T13:45:11.027Z,38.37
2022-08-05T13:48:08.583Z,37.33
2022-08-05T13:50:25.853Z,38.18
2022-08-05T13:52:52.404Z,37.68
2022-08-05T13:55:41.652Z,37.65
2022-08-05T13:58:05.639Z,37.05
2022-08-05T14:00:32.308Z,36.95
2022-08-05T14:03:01.390Z,36.81
2022-08-05T14:05:48.574Z,36.85
2022-08-05T14:08:21.086Z,37.61
2022-08-05T14:11:03.362Z,38.20
2022-08-05T14:13:41.194Z,39.36
2022-08-05T14:16:11.498Z,39.30
2022-08-05T14:18:38.309Z,38.49
2022-08-05T14:22:07.491Z,38.32
2022-08-05T14:23:51.725Z,37.27
2022-08-05T14:26:35.769Z,37.00
2022-08-05T14:29:05.678Z,36.47
2022-08-05T14:32:03.885Z,36.10
2022-08-05T14:34:29.926Z,35.82
2022-08-05T14:37:01.835Z,35.10
2022-08-05T14:39:28.369Z,34.94
2022-08-05T14:42:19.540Z,34.95
2022-08-05T14:44:42.294Z,34.62
2022-08-05T14:47:09.469Z,34.26
2022-08-05T14:49:59.528Z,34.17
2022-08-05T14:52:50.423Z,34.09
2022-08-05T14:55:09.163Z,34.07
2022-08-05T14:57:54.650Z,33.99
2022-08-05T15:00:28.050Z,33.90
2022-08-05T15:02:55.097Z,33.91
2022-08-05T15:05:21.747Z,33.88
2022-08-05T15:08:10.866Z,33.87
2022-08-05T15:10:43.471Z,33.72
2022-08-05T15:13:12.815Z,33.76
2022-08-05T15:15:54.572Z,33.73
2022-08-05T15:18:22.653Z,33.71
2022-08-05T15:20:49.674Z,33.58
2022-08-05T15:23:17.751Z,33.52
2022-08-05T15:25:52.729Z,33.19
2022-08-05T15:28:21.701Z,32.99
2022-08-05T15:30:54.178Z,32.90
2022-08-05T15:33:56.734Z,32.91
2022-08-05T15:36:16.944Z,32.81
2022-08-05T15:38:44.782Z,32.67
2022-08-05T15:41:22.565Z,32.82
2022-08-05T15:43:51.960Z,32.82
2022-08-05T15:46:24.418Z,32.74
2022-08-05T15:48:58.575Z,32.69
2022-08-05T15:52:03.963Z,32.61
2022-08-05T15:54:15.807Z,32.52
2022-08-05T15:56:42.634Z,32.59
2022-08-05T15:59:10.462Z,32.50
2022-08-05T16:01:52.944Z,32.54
2022-08-05T16:04:25.499Z,32.41
2022-08-05T16:06:55.569Z,32.32
2022-08-05T16:09:22.410Z,32.38
2022-08-05T16:11:52.818Z,32.34
2022-08-05T16:14:20.360Z,32.38
2022-08-05T16:16:47.434Z,32.18
2022-08-05T16:19:18.965Z,32.36
2022-08-05T16:22:02.825Z,32.34
2022-08-05T16:24:41.453Z,32.44
2022-08-05T16:27:16.981Z,32.48
2022-08-05T16:29:50.407Z,32.31
2022-08-05T16:32:18.193Z,32.14
2022-08-05T16:34:55.427Z,31.98
2022-08-05T16:38:04.139Z,31.87
2022-08-05T16:40:20.182Z,31.72
2022-08-05T16:42:51.902Z,31.66
2022-08-05T16:46:03.613Z,31.51
2022-08-05T16:48:05.563Z,31.59
2022-08-05T16:50:32.180Z,31.45
2022-08-05T16:53:12.089Z,31.44
2022-08-05T16:55:46.443Z,31.36
2022-08-05T16:58:14.436Z,31.23
2022-08-05T17:00:41.079Z,31.13
2022-08-05T17:03:15.450Z,31.02
2022-08-05T17:05:51.784Z,31.04
2022-08-05T17:08:36.073Z,30.81
2022-08-05T17:11:08.716Z,30.76
2022-08-05T17:13:37.781Z,30.47
2022-08-05T17:16:29.953Z,30.40
2022-08-05T17:18:54.926Z,30.26
2022-08-05T17:21:21.547Z,30.06
2022-08-05T17:24:05.103Z,29.90
2022-08-05T17:26:35.708Z,29.84
2022-08-05T17:29:07.313Z,29.74
2022-08-05T17:31:41.273Z,29.59
2022-08-05T17:34:32.080Z,29.39
2022-08-05T17:37:00.372Z,29.43
2022-08-05T17:39:34.252Z,29.41
2022-08-05T17:42:20.010Z,29.38
2022-08-05T17:44:50.167Z,29.36
2022-08-05T17:47:21.939Z,29.36
2022-08-05T17:50:00.350Z,29.29
2022-08-05T17:52:31.807Z,29.05
2022-08-05T17:54:58.450Z,28.43
2022-08-05T17:57:25.091Z,27.83
2022-08-05T18:00:05.075Z,27.54
2022-08-05T18:02:34.253Z,27.16
2022-08-05T18:05:07.694Z,26.84
2022-08-05T18:07:41.528Z,26.61
2022-08-05T18:10:10.962Z,26.46
2022-08-05T18:12:38.261Z,26.24
2022-08-05T18:15:05.468Z,25.90
2022-08-05T18:18:00.132Z,25.71
2022-08-05T18:20:19.740Z,25.56
2022-08-05T18:22:57.367Z,25.33
2022-08-05T18:25:25.202Z,25.24
2022-08-05T18:27:52.793Z,25.07
2022-08-05T18:30:19.745Z,24.84
2022-08-05T18:32:53.421Z,24.69
2022-08-05T18:35:49.443Z,24.53
2022-08-05T18:38:13.315Z,24.32
2022-08-05T18:41:56.501Z,24.34
2022-08-05T18:43:38.033Z,24.15
2022-08-05T18:46:10.025Z,24.05
2022-08-05T18:48:41.736Z,23.99
2022-08-05T18:52:05.455Z,23.96
2022-08-05T18:54:14.446Z,23.95
2022-08-05T18:56:41.970Z,23.97
2022-08-05T18:59:44.438Z,23.98
2022-08-05T19:02:04.726Z,23.87
2022-08-05T19:05:01.595Z,23.78
2022-08-05T19:07:25.448Z,23.76
2022-08-05T19:09:56.869Z,23.77
2022-08-05T19:12:24.407Z,23.80
2022-08-05T19:15:02.449Z,23.76
2022-08-05T19:17:58.251Z,23.65
2022-08-05T19:20:16.010Z,23.50
2022-08-05T19:22:44.331Z,23.41
2022-08-05T19:25:11.106Z,23.13
2022-08-05T19:27:56.001Z,22.90
2022-08-05T19:30:22.608Z,22.69
2022-08-05T19:32:50.272Z,22.75
2022-08-05T19:35:16.840Z,22.80
2022-08-05T19:38:06.794Z,22.59
2022-08-05T19:40:34.961Z,22.51
2022-08-05T19:43:05.315Z,22.43
2022-08-05T19:45:36.251Z,22.36
2022-08-05T19:48:04.208Z,22.22
2022-08-05T19:50:32.187Z,22.10
2022-08-05T19:53:10.368Z,22.11
2022-08-05T19:56:13.999Z,22.00
2022-08-05T19:58:29.065Z,21.88
2022-08-05T20:00:56.236Z,21.80
2022-08-05T20:03:22.856Z,21.84
2022-08-05T20:05:56.414Z,21.94
2022-08-05T20:08:24.584Z,21.91
2022-08-05T20:10:51.886Z,21.88
2022-08-05T20:13:30.172Z,21.79
2022-08-05T20:16:06.577Z,21.65
2022-08-05T20:18:35.968Z,21.59
2022-08-05T20:21:06.814Z,21.61
2022-08-05T20:23:39.818Z,21.51
2022-08-05T20:26:17.841Z,21.49
2022-08-05T20:28:48.605Z,21.52
2022-08-05T20:31:16.701Z,21.43
2022-08-05T20:33:44.515Z,21.44
2022-08-05T20:36:11.583Z,21.43
2022-08-05T20:38:53.739Z,21.47
2022-08-05T20:41:27.324Z,21.42
2022-08-05T20:44:18.579Z,21.35
2022-08-05T20:46:55.465Z,21.32
2022-08-05T20:49:23.960Z,21.20
2022-08-05T20:51:53.401Z,21.03
2022-08-05T20:54:20.450Z,20.89
2022-08-05T20:56:47.351Z,20.91
2022-08-05T20:59:26.287Z,20.96
2022-08-05T21:01:57.277Z,20.92
2022-08-05T21:04:27.036Z,21.04
2022-08-05T21:06:54.209Z,20.92
2022-08-05T21:09:20.748Z,20.75
2022-08-05T21:12:09.702Z,20.70
2022-08-05T21:14:35.159Z,20.62
2022-08-05T21:17:04.861Z,20.57
2022-08-05T21:19:46.711Z,20.53
2022-08-05T21:22:18.505Z,20.54
2022-08-05T21:24:48.745Z,20.47
2022-08-05T21:27:15.842Z,20.36
2022-08-05T21:29:43.169Z,20.40
2022-08-05T21:32:17.069Z,20.49
2022-08-05T21:34:46.498Z,20.52
2022-08-05T21:37:33.002Z,20.42
2022-08-05T21:39:59.578Z,20.38
2022-08-05T21:42:40.907Z,20.24
2022-08-05T21:45:11.025Z,20.24
2022-08-05T21:47:56.976Z,20.19
2022-08-05T21:50:24.729Z,19.97
2022-08-05T21:52:58.937Z,20.00
2022-08-05T21:56:04.141Z,19.92
2022-08-05T21:58:31.993Z,19.81
2022-08-05T22:00:59.381Z,19.59
2022-08-05T22:03:52.543Z,19.67
2022-08-05T22:06:12.681Z,19.69
2022-08-05T22:08:42.430Z,19.57
2022-08-05T22:11:15.760Z,19.42
2022-08-05T22:14:19.894Z,19.28
2022-08-05T22:16:51.833Z,19.24
2022-08-05T22:20:00.697Z,19.30
2022-08-05T22:22:04.509Z,19.22
2022-08-05T22:24:52.126Z,19.19
2022-08-05T22:28:09.184Z,19.37
2022-08-05T22:30:25.350Z,19.36
2022-08-05T22:33:01.656Z,19.39
2022-08-05T22:35:38.643Z,19.33
2022-08-05T22:38:14.633Z,18.73
2022-08-05T22:40:41.829Z,18.39
2022-08-05T22:43:16.267Z,18.19
2022-08-05T22:46:08.788Z,18.02
2022-08-05T22:48:39.147Z,18.03
2022-08-05T22:51:06.972Z,18.02
2022-08-05T22:53:35.887Z,18.00
2022-08-05T22:56:03.205Z,17.98
2022-08-05T22:58:29.710Z,17.76
2022-08-05T23:00:59.419Z,17.53
2022-08-05T23:03:57.766Z,17.32
2022-08-05T23:06:12.602Z,17.16
2022-08-05T23:08:39.976Z,16.97
2022-08-05T23:11:07.343Z,16.86
2022-08-05T23:13:35.318Z,16.78
2022-08-05T23:16:03.887Z,16.72
2022-08-05T23:18:30.419Z,16.73
2022-08-05T23:20:58.925Z,16.77
2022-08-05T23:23:25.946Z,16.63
2022-08-05T23:25:56.541Z,16.54
2022-08-05T23:28:28.762Z,16.45
2022-08-05T23:30:56.331Z,16.47
2022-08-05T23:34:03.829Z,16.50
2022-08-05T23:36:39.803Z,16.57
2022-08-05T23:39:17.398Z,16.67
2022-08-05T23:41:59.791Z,16.69
2022-08-05T23:44:28.053Z,16.58
2022-08-05T23:47:02.631Z,16.62
2022-08-05T23:49:41.421Z,16.77
2022-08-05T23:52:26.539Z,16.53
2022-08-05T23:54:56.109Z,16.66
2022-08-05T23:57:24.205Z,16.66
